Time;durP1;ratioP1;P1;durP2;ratioP2;P2;SDS_P1;SDS_P2;PMS_P1;PMS_P2;Temp;Humidity;BMP_temperature;BMP_pressure;BME280_temperature;BME280_humidity;BME280_pressure;Samples;Min_cycle;Max_cycle;Signal;HPM_P1;HPM_P2
2022/04/16 00:01:05;;;;;;;34.20;31.40;;;;;;;7.02;84.47;98283.57;107966;1290;22302;-86
2022/04/16 00:03:33;;;;;;;32.80;30.00;;;;;;;7.03;84.49;98285.50;107991;1290;22369;-84
2022/04/16 00:06:02;;;;;;;30.30;27.80;;;;;;;7.04;84.60;98285.56;107958;1289;22422;-88
2022/04/16 00:08:30;;;;;;;31.10;28.70;;;;;;;7.07;84.84;98284.60;107999;1290;22256;-87
2022/04/16 00:11:00;;;;;;;30.60;28.10;;;;;;;7.07;85.01;98280.68;107987;1290;23161;-86
2022/04/16 00:13:29;;;;;;;30.70;28.20;;;;;;;7.05;85.26;98277.47;107998;1290;22413;-85
2022/04/16 00:15:58;;;;;;;28.50;26.00;;;;;;;7.04;84.91;98281.59;108030;1290;22353;-92
2022/04/16 00:18:26;;;;;;;27.40;25.00;;;;;;;7.05;85.56;98283.52;108061;1290;22332;-91
2022/04/16 00:20:53;;;;;;;25.70;23.30;;;;;;;7.03;86.11;98280.58;108011;1290;22333;-87
2022/04/16 00:23:21;;;;;;;26.30;23.80;;;;;;;6.97;86.89;98284.05;107877;1289;22590;-91
2022/04/16 00:25:50;;;;;;;27.50;25.10;;;;;;;6.95;86.23;98278.58;107981;1290;22326;-83
2022/04/16 00:28:18;;;;;;;26.10;23.80;;;;;;;6.95;86.93;98282.48;108003;1290;22439;-87
2022/04/16 00:30:46;;;;;;;25.20;23.10;;;;;;;6.91;87.36;98280.92;108032;1290;187896;-85
2022/04/16 00:33:14;;;;;;;22.50;20.40;;;;;;;6.89;87.60;98282.63;108032;1290;23032;-86
2022/04/16 00:35:42;;;;;;;20.80;18.60;;;;;;;6.86;87.57;98283.45;108004;1290;22465;-87
2022/04/16 00:38:11;;;;;;;18.70;17.10;;;;;;;6.85;87.99;98285.26;107978;1291;22186;-87
2022/04/16 00:40:39;;;;;;;17.80;16.10;;;;;;;6.78;89.24;98286.38;108043;1289;23075;-86
2022/04/16 00:43:07;;;;;;;17.90;16.00;;;;;;;6.70;89.27;98287.58;108025;1290;22224;-86
2022/04/16 00:45:35;;;;;;;15.80;14.30;;;;;;;6.63;89.86;98287.50;108009;1290;22338;-84
2022/04/16 00:48:05;;;;;;;13.60;12.40;;;;;;;6.56;90.01;98297.80;108009;1289;22325;-86
2022/04/16 00:50:33;;;;;;;12.50;11.30;;;;;;;6.49;89.96;98295.65;107991;1290;22439;-86
2022/04/16 00:53:01;;;;;;;12.00;11.00;;;;;;;6.45;90.36;98293.06;107970;1290;22367;-83
2022/04/16 00:55:30;;;;;;;13.30;11.40;;;;;;;6.45;90.00;98304.78;107904;1290;22392;-85
2022/04/16 00:57:58;;;;;;;11.40;10.40;;;;;;;6.44;89.64;98302.11;107659;1290;22310;-87
2022/04/16 01:00:26;;;;;;;12.00;10.90;;;;;;;6.43;89.52;98301.30;107993;1290;22360;-87
2022/04/16 01:02:56;;;;;;;11.20;10.10;;;;;;;6.44;89.14;98304.41;108003;1290;22344;-87
2022/04/16 01:05:24;;;;;;;11.40;10.40;;;;;;;6.42;89.81;98310.66;107995;1290;22432;-86
2022/04/16 01:07:57;;;;;;;12.00;10.90;;;;;;;6.37;89.65;98305.02;107994;1290;22583;-87
2022/04/16 01:10:29;;;;;;;12.50;11.50;;;;;;;6.35;89.41;98304.01;107963;1289;22370;-81
2022/04/16 01:12:59;;;;;;;11.30;10.30;;;;;;;6.35;89.24;98306.35;107993;1290;23661;-81
2022/04/16 01:15:29;;;;;;;12.30;11.20;;;;;;;6.33;89.25;98308.69;108017;1289;22280;-82
2022/04/16 01:17:59;;;;;;;13.00;11.90;;;;;;;6.28;89.49;98318.46;108082;1290;22832;-81
2022/04/16 01:20:27;;;;;;;11.50;10.60;;;;;;;6.24;89.44;98318.55;108245;1290;22681;-81
2022/04/16 01:22:56;;;;;;;10.70;9.80;;;;;;;6.20;89.45;98322.92;108294;1289;22535;-82
2022/04/16 01:25:27;;;;;;;9.80;8.90;;;;;;;6.17;89.02;98319.05;108281;1290;22367;-81
2022/04/16 01:27:54;;;;;;;12.20;11.10;;;;;;;6.16;89.03;98325.88;108305;1290;22433;-83
2022/04/16 01:30:23;;;;;;;11.20;10.20;;;;;;;6.11;88.97;98327.38;108311;1289;22403;-81
2022/04/16 01:32:51;;;;;;;9.50;8.70;;;;;;;6.06;88.99;98328.63;108293;1290;22371;-81
2022/04/16 01:35:20;;;;;;;10.20;9.20;;;;;;;6.03;89.11;98334.80;108127;1289;22353;-82
2022/04/16 01:37:47;;;;;;;9.00;8.20;;;;;;;5.97;89.17;98335.30;108012;1290;22465;-82
2022/04/16 01:40:16;;;;;;;9.00;8.10;;;;;;;5.94;88.93;98333.89;107984;1290;23741;-81
2022/04/16 01:42:46;;;;;;;10.80;9.70;;;;;;;5.92;88.82;98337.55;108037;1290;22519;-82
2022/04/16 01:45:17;;;;;;;9.80;8.90;;;;;;;5.90;88.77;98336.14;108030;1290;22653;-82
2022/04/16 01:47:46;;;;;;;10.10;9.10;;;;;;;5.88;89.55;98344.43;107985;1290;22385;-82
2022/04/16 01:50:14;;;;;;;10.60;9.50;;;;;;;5.84;89.56;98344.13;107965;1290;22423;-82
2022/04/16 01:52:42;;;;;;;10.10;9.00;;;;;;;5.84;89.22;98345.94;107985;1290;23002;-79
2022/04/16 01:55:12;;;;;;;10.10;9.00;;;;;;;5.82;89.34;98351.28;107964;1290;22500;-79
2022/04/16 01:57:41;;;;;;;10.40;9.40;;;;;;;5.82;89.18;98356.62;107987;1290;22281;-79
2022/04/16 02:00:12;;;;;;;11.20;10.10;;;;;;;5.78;89.17;98355.25;107879;1290;23209;-79
2022/04/16 02:02:41;;;;;;;11.60;10.50;;;;;;;5.77;89.12;98358.34;107996;1290;22475;-79
2022/04/16 02:05:10;;;;;;;9.80;9.00;;;;;;;5.72;89.36;98359.33;107993;1290;23227;-80
2022/04/16 02:07:39;;;;;;;9.60;8.80;;;;;;;5.65;89.14;98358.05;108000;1290;22355;-78
2022/04/16 02:10:08;;;;;;;9.10;8.30;;;;;;;5.62;89.43;98353.36;107972;1290;22973;-78
2022/04/16 02:12:36;;;;;;;10.10;9.20;;;;;;;5.60;89.40;98353.30;107919;1290;22373;-78
2022/04/16 02:15:07;;;;;;;11.20;10.20;;;;;;;5.59;88.89;98355.20;107897;1291;22408;-79
2022/04/16 02:17:39;;;;;;;11.50;10.50;;;;;;;5.59;88.74;98353.35;107995;1290;22358;-78
2022/04/16 02:20:09;;;;;;;12.70;11.60;;;;;;;5.61;88.39;98349.29;107988;1290;23075;-79
2022/04/16 02:22:45;;;;;;;11.80;10.80;;;;;;;5.62;88.30;98351.83;107976;1290;22259;-79
2022/04/16 02:25:17;;;;;;;10.90;9.90;;;;;;;5.63;88.32;98354.73;108002;1290;22389;-79
2022/04/16 02:27:45;;;;;;;12.50;11.40;;;;;;;5.63;88.61;98357.86;107993;1290;22865;-79
2022/04/16 02:30:14;;;;;;;11.90;10.90;;;;;;;5.60;88.73;98358.05;107656;1290;23072;-79
2022/04/16 02:32:45;;;;;;;11.20;10.20;;;;;;;5.59;89.05;98359.86;108014;1290;22354;-79
2022/04/16 02:35:15;;;;;;;10.30;9.40;;;;;;;5.60;88.67;98362.17;107978;1290;22305;-79
2022/04/16 02:37:43;;;;;;;11.80;10.70;;;;;;;5.59;88.98;98359.43;107998;1290;22425;-79
2022/04/16 02:40:12;;;;;;;10.30;9.50;;;;;;;5.62;88.57;98362.35;107969;1290;22419;-80
2022/04/16 02:42:42;;;;;;;10.50;9.60;;;;;;;5.60;88.59;98360.61;107994;1290;22937;-79
2022/04/16 02:48:00;;;;;;;7.60;6.90;;;;;;;5.48;88.75;98368.59;107981;1290;22998;-79
2022/04/16 02:50:28;;;;;;;8.20;7.50;;;;;;;5.41;88.93;98366.27;107900;1291;22383;-80
2022/04/16 02:52:58;;;;;;;8.40;7.60;;;;;;;5.35;88.80;98368.05;107911;1291;22381;-80
2022/04/16 02:55:26;;;;;;;8.90;8.10;;;;;;;5.32;88.82;98368.49;107989;1290;22407;-80
2022/04/16 02:57:55;;;;;;;8.20;7.40;;;;;;;5.21;89.13;98373.80;107891;1291;22358;-80
2022/04/16 03:00:24;;;;;;;7.60;6.90;;;;;;;5.14;89.23;98375.48;108011;1290;23167;-80
2022/04/16 03:02:53;;;;;;;7.70;6.90;;;;;;;5.12;89.00;98377.61;107533;1290;23146;-80
2022/04/16 03:05:22;;;;;;;8.30;7.60;;;;;;;5.14;88.71;98375.64;107999;1290;22413;-80
2022/04/16 03:07:50;;;;;;;8.40;7.70;;;;;;;5.14;88.75;98376.02;107964;1290;22351;-79
2022/04/16 03:10:18;;;;;;;6.70;6.10;;;;;;;5.12;88.89;98380.48;107993;1290;22364;-80
2022/04/16 03:12:51;;;;;;;8.30;6.80;;;;;;;5.06;88.95;98380.35;107989;1290;22268;-80
2022/04/16 03:18:07;;;;;;;7.90;7.20;;;;;;;5.01;88.92;98389.13;107990;1290;23060;-80
2022/04/16 03:20:37;;;;;;;7.00;6.40;;;;;;;4.98;88.96;98392.45;107677;1290;22275;-80
2022/04/16 03:23:05;;;;;;;7.60;6.90;;;;;;;4.95;88.89;98394.61;108010;1290;22406;-80
2022/04/16 03:25:33;;;;;;;8.00;7.20;;;;;;;4.95;88.57;98389.96;108004;1289;22421;-80
2022/04/16 03:28:03;;;;;;;7.50;6.80;;;;;;;4.94;89.10;98395.83;107989;1290;22331;-80
2022/04/16 03:30:31;;;;;;;6.60;6.00;;;;;;;4.88;89.35;98403.35;107974;1290;22411;-80
2022/04/16 03:32:59;;;;;;;7.30;6.10;;;;;;;4.83;89.07;98406.33;108005;1290;22407;-80
2022/04/16 03:35:27;;;;;;;6.00;5.40;;;;;;;4.77;89.27;98414.31;108010;1290;22404;-81
2022/04/16 03:37:55;;;;;;;7.60;6.90;;;;;;;4.69;89.21;98419.50;107988;1290;22451;-80
2022/04/16 03:40:26;;;;;;;6.40;5.80;;;;;;;4.64;89.37;98421.94;107684;1290;23075;-81
2022/04/16 03:42:57;;;;;;;7.10;6.40;;;;;;;4.58;89.47;98423.36;107979;1290;23179;-80
2022/04/16 03:45:29;;;;;;;6.60;6.00;;;;;;;4.51;89.76;98431.86;107651;1290;22445;-80
2022/04/16 03:47:59;;;;;;;6.60;6.00;;;;;;;4.39;89.85;98425.35;108005;1290;22409;-81
2022/04/16 03:50:29;;;;;;;7.00;6.40;;;;;;;4.30;90.12;98430.08;107884;1290;22341;-80
2022/04/16 03:52:58;;;;;;;6.30;5.40;;;;;;;4.26;90.51;98434.60;107994;1290;23243;-81
2022/04/16 04:01:03;;;;;;;7.80;7.00;;;;;;;4.24;89.93;98444.00;107984;1290;22284;-80
2022/04/16 04:03:32;;;;;;;7.10;6.40;;;;;;;4.22;89.90;98444.67;107882;1290;22462;-80
2022/04/16 04:06:01;;;;;;;7.10;6.50;;;;;;;4.20;89.49;98450.50;107896;1290;23113;-80
2022/04/16 04:08:31;;;;;;;6.50;5.90;;;;;;;4.19;89.97;98452.91;107974;1290;22361;-80
2022/04/16 04:10:59;;;;;;;7.10;6.50;;;;;;;4.18;90.29;98455.88;107985;1290;22268;-80
2022/04/16 04:13:27;;;;;;;8.30;7.60;;;;;;;4.16;90.10;98457.23;108017;1290;22380;-80
2022/04/16 04:15:55;;;;;;;7.50;6.90;;;;;;;4.18;90.52;98463.56;107994;1290;22345;-80
2022/04/16 04:18:24;;;;;;;7.30;6.70;;;;;;;4.16;90.31;98466.44;107986;1290;22479;-80
2022/04/16 04:20:54;;;;;;;8.50;7.80;;;;;;;4.15;90.26;98475.03;108001;1290;23324;-80
2022/04/16 04:23:22;;;;;;;7.40;6.80;;;;;;;4.15;90.14;98476.05;107676;1290;23326;-79
2022/04/16 04:25:51;;;;;;;7.20;6.60;;;;;;;4.17;89.84;98476.88;108008;1290;22366;-80
2022/04/16 04:28:19;;;;;;;9.20;8.40;;;;;;;4.19;89.71;98482.03;107960;1290;22428;-80
2022/04/16 04:30:47;;;;;;;8.20;7.50;;;;;;;4.20;89.85;98486.84;107977;1289;22454;-80
2022/04/16 04:33:15;;;;;;;8.20;7.40;;;;;;;4.23;89.50;98488.01;107683;1290;23084;-80
2022/04/16 04:35:43;;;;;;;7.50;6.80;;;;;;;4.23;89.44;98488.98;107987;1290;22463;-81
2022/04/16 04:38:11;;;;;;;9.70;7.00;;;;;;;4.24;89.65;98494.59;107989;1290;23149;-81
2022/04/16 04:40:41;;;;;;;10.60;6.20;;;;;;;4.21;89.69;98499.24;107977;1289;23090;-81
2022/04/16 04:43:09;;;;;;;9.00;6.80;;;;;;;4.16;89.26;98496.80;107970;1289;22951;-81
2022/04/16 04:45:37;;;;;;;8.80;6.30;;;;;;;4.15;89.85;98499.78;107989;1290;23265;-82
2022/04/16 04:48:05;;;;;;;8.60;7.00;;;;;;;4.15;89.46;98502.29;108009;1289;22303;-82
2022/04/16 04:50:33;;;;;;;7.00;6.30;;;;;;;4.14;90.00;98505.25;108019;1290;22323;-80
2022/04/16 04:53:01;;;;;;;8.00;7.30;;;;;;;4.11;90.19;98509.30;107874;1290;22356;-80
2022/04/16 04:55:29;;;;;;;7.60;6.60;;;;;;;4.07;90.04;98513.53;107945;1290;22320;-80
2022/04/16 04:57:56;;;;;;;7.80;6.60;;;;;;;4.04;90.31;98514.80;107955;1290;22420;-81
2022/04/16 05:00:24;;;;;;;8.00;7.20;;;;;;;4.02;90.25;98518.98;107967;1290;22250;-88
2022/04/16 05:02:52;;;;;;;6.90;6.30;;;;;;;4.01;90.49;98525.15;108004;1290;23042;-88
2022/04/16 05:05:20;;;;;;;8.10;6.20;;;;;;;3.98;90.72;98533.10;107953;1290;22351;-81
2022/04/16 05:07:48;;;;;;;8.00;6.40;;;;;;;3.98;90.57;98528.67;107606;1290;22185;-83
2022/04/16 05:10:16;;;;;;;7.50;6.70;;;;;;;3.99;90.82;98536.85;107959;1290;22636;-82
2022/04/16 05:12:44;;;;;;;8.40;6.50;;;;;;;4.00;90.66;98537.51;107978;1290;22405;-82
2022/04/16 05:15:12;;;;;;;10.00;6.20;;;;;;;4.01;90.48;98539.45;107968;1290;22360;-82
2022/04/16 05:17:40;;;;;;;7.60;6.90;;;;;;;4.03;90.54;98539.15;107962;1290;22440;-83
2022/04/16 05:20:09;;;;;;;7.70;6.90;;;;;;;4.05;90.21;98541.69;107974;1290;22403;-83
2022/04/16 05:22:38;;;;;;;8.00;7.10;;;;;;;4.08;90.59;98546.02;107990;1290;22313;-83
2022/04/16 05:25:06;;;;;;;8.30;7.50;;;;;;;4.07;91.02;98543.92;107976;1290;22319;-83
2022/04/16 05:27:35;;;;;;;7.60;6.90;;;;;;;4.10;91.11;98550.59;107685;1290;22525;-83
2022/04/16 05:30:06;;;;;;;8.90;8.10;;;;;;;4.12;90.85;98553.02;107984;1290;22268;-83
2022/04/16 05:32:40;;;;;;;8.60;7.80;;;;;;;4.14;91.12;98554.80;107989;1290;22313;-83
2022/04/16 05:35:10;;;;;;;8.80;8.00;;;;;;;4.14;90.70;98555.35;107984;1289;22516;-83
2022/04/16 05:37:38;;;;;;;10.60;9.70;;;;;;;4.20;91.04;98558.39;107863;1290;22376;-82
2022/04/16 05:40:07;;;;;;;10.30;9.40;;;;;;;4.18;91.01;98557.06;107982;1290;22828;-83
2022/04/16 05:42:42;;;;;;;9.90;9.10;;;;;;;4.20;91.13;98553.38;107987;1290;22285;-85
2022/04/16 05:45:14;;;;;;;11.10;10.20;;;;;;;4.24;90.99;98565.88;107724;1290;22272;-82
2022/04/16 05:47:43;;;;;;;11.00;10.10;;;;;;;4.26;90.57;98565.70;108026;1290;22337;-85
2022/04/16 05:50:12;;;;;;;9.90;9.10;;;;;;;4.29;90.53;98562.48;107996;1290;22387;-85
2022/04/16 05:52:41;;;;;;;10.70;9.60;;;;;;;4.29;90.74;98566.75;108020;1290;22291;-84
2022/04/16 05:55:09;;;;;;;9.20;8.30;;;;;;;4.30;90.63;98566.23;108035;1290;22352;-85
2022/04/16 05:57:38;;;;;;;8.80;7.90;;;;;;;4.34;90.71;98570.25;108024;1290;22360;-85
2022/04/16 06:00:12;;;;;;;8.90;8.00;;;;;;;4.36;90.68;98574.60;108001;1290;22317;-84
2022/04/16 06:02:41;;;;;;;;;;;;;;;4.31;90.51;98579.38;108027;1290;22379;-84
2022/04/16 06:05:10;;;;;;;9.70;8.70;;;;;;;4.25;90.77;98576.92;108003;1290;22738;-84
2022/04/16 06:07:37;;;;;;;10.40;9.40;;;;;;;4.27;90.73;98578.56;107707;1290;22204;-84
2022/04/16 06:10:06;;;;;;;11.70;10.50;;;;;;;4.31;90.58;98583.77;108019;1290;22196;-84
2022/04/16 06:12:33;;;;;;;10.60;9.70;;;;;;;4.33;90.38;98588.90;107996;1289;22300;-84
2022/04/16 06:15:01;;;;;;;10.50;9.40;;;;;;;4.27;90.49;98589.98;107988;1290;22261;-83
2022/04/16 06:17:29;;;;;;;9.60;8.70;;;;;;;4.17;90.78;98585.96;108019;1290;23203;-82
2022/04/16 06:19:57;;;;;;;9.20;8.30;;;;;;;4.18;90.22;98593.30;108006;1290;22392;-90
2022/04/16 06:22:25;;;;;;;9.50;8.70;;;;;;;4.17;90.42;98593.98;108027;1290;22973;-82
2022/04/16 06:24:52;;;;;;;11.40;10.40;;;;;;;4.15;90.37;98600.92;107995;1290;22542;-83
2022/04/16 06:27:20;;;;;;;11.20;10.20;;;;;;;4.13;90.36;98603.23;107989;1290;22340;-84
2022/04/16 06:29:48;;;;;;;9.40;8.70;;;;;;;4.13;90.93;98608.61;107688;1290;22464;-83
2022/04/16 06:32:16;;;;;;;9.40;8.60;;;;;;;4.12;91.01;98613.18;107999;1290;22501;-82
2022/04/16 06:34:44;;;;;;;11.40;10.40;;;;;;;4.14;90.60;98616.58;107989;1290;22355;-81
2022/04/16 06:37:12;;;;;;;11.90;10.80;;;;;;;4.14;90.52;98619.08;107985;1290;22303;-83
2022/04/16 06:39:41;;;;;;;11.50;10.50;;;;;;;4.09;90.94;98624.51;107999;1290;22262;-82
2022/04/16 06:42:09;;;;;;;13.90;12.60;;;;;;;4.09;90.76;98624.13;107984;1290;22433;-82
2022/04/16 06:44:36;;;;;;;11.50;10.50;;;;;;;4.12;90.78;98627.70;107990;1289;23126;-83
2022/04/16 06:47:04;;;;;;;11.20;10.30;;;;;;;4.13;90.66;98628.41;108001;1290;23116;-82
2022/04/16 06:49:32;;;;;;;12.00;10.80;;;;;;;4.13;90.48;98629.68;107991;1290;23364;-83
2022/04/16 06:52:00;;;;;;;9.80;8.90;;;;;;;4.15;90.37;98632.49;107993;1290;22582;-83
2022/04/16 06:54:27;;;;;;;8.50;7.70;;;;;;;4.17;90.47;98634.41;107975;1290;22404;-84
2022/04/16 06:56:55;;;;;;;8.70;8.00;;;;;;;4.21;90.20;98641.96;107995;1290;23015;-83
2022/04/16 06:59:23;;;;;;;8.50;7.60;;;;;;;4.23;90.17;98648.59;107992;1290;23126;-84
2022/04/16 07:01:51;;;;;;;9.30;8.40;;;;;;;4.21;90.28;98647.37;107977;1290;22339;-83
2022/04/16 07:04:19;;;;;;;8.00;7.30;;;;;;;4.20;90.32;98648.70;107993;1290;22437;-83
2022/04/16 07:06:47;;;;;;;8.80;7.90;;;;;;;4.23;89.92;98649.34;108005;1290;23083;-83
2022/04/16 07:09:15;;;;;;;9.20;8.30;;;;;;;4.24;90.12;98648.79;107984;1290;22348;-82
2022/04/16 07:11:42;;;;;;;8.90;8.10;;;;;;;4.26;90.09;98648.85;108064;1290;22514;-81
2022/04/16 07:14:10;;;;;;;7.80;7.10;;;;;;;4.25;90.00;98652.41;108115;1290;22981;-80
2022/04/16 07:16:38;;;;;;;7.50;6.80;;;;;;;4.25;90.03;98657.59;107927;1290;22337;-81
2022/04/16 07:19:06;;;;;;;8.40;7.60;;;;;;;4.26;90.07;98657.89;108285;1290;22638;-83
2022/04/16 07:21:34;;;;;;;7.70;6.30;;;;;;;4.24;89.96;98663.23;108303;1290;22283;-81
2022/04/16 07:24:02;;;;;;;7.10;6.50;;;;;;;4.22;90.11;98667.22;108338;1290;22466;-82
2022/04/16 07:26:30;;;;;;;7.40;6.10;;;;;;;4.19;89.82;98669.44;108025;1289;23051;-81
2022/04/16 07:28:58;;;;;;;6.20;5.60;;;;;;;4.18;89.97;98679.98;107996;1290;22212;-82
2022/04/16 07:31:26;;;;;;;6.30;5.70;;;;;;;4.11;89.81;98681.45;107872;1290;23250;-83
2022/04/16 07:33:54;;;;;;;6.80;6.10;;;;;;;4.06;89.80;98688.30;108025;1290;22366;-84
2022/04/16 07:36:22;;;;;;;7.20;6.50;;;;;;;4.00;89.59;98698.30;108017;1289;22365;-82
2022/04/16 07:38:50;;;;;;;7.70;6.90;;;;;;;3.98;89.79;98700.23;107993;1290;22254;-81
2022/04/16 07:41:18;;;;;;;7.60;6.90;;;;;;;3.98;89.56;98701.31;107985;1290;22373;-82
2022/04/16 07:43:46;;;;;;;9.60;8.60;;;;;;;3.98;89.71;98701.42;107835;1291;22371;-82
2022/04/16 07:46:15;;;;;;;9.70;8.70;;;;;;;4.02;89.95;98707.05;107987;1290;23070;-84
2022/04/16 07:48:43;;;;;;;9.60;8.70;;;;;;;4.00;89.63;98712.97;107985;1290;22330;-83
2022/04/16 07:51:11;;;;;;;9.90;9.00;;;;;;;3.96;89.66;98715.46;107691;1290;22335;-83
2022/04/16 07:53:38;;;;;;;9.40;8.60;;;;;;;3.96;89.50;98719.72;107981;1290;22433;-83
2022/04/16 07:56:06;;;;;;;10.10;9.20;;;;;;;3.95;89.81;98722.46;107993;1290;22380;-84
2022/04/16 07:58:34;;;;;;;9.90;9.00;;;;;;;3.90;89.58;98725.14;108001;1290;23384;-81
2022/04/16 08:01:02;;;;;;;16.50;15.10;;;;;;;3.84;89.50;98725.05;107978;1288;22330;-82
2022/04/16 08:03:30;;;;;;;13.20;12.00;;;;;;;3.82;89.45;98728.11;107994;1290;23171;-81
2022/04/16 08:05:58;;;;;;;10.90;9.80;;;;;;;3.85;89.62;98725.77;108010;1289;22276;-84
2022/04/16 08:08:26;;;;;;;9.90;9.00;;;;;;;3.90;88.99;98729.50;107983;1290;22309;-82
2022/04/16 08:10:53;;;;;;;10.40;9.50;;;;;;;3.87;89.18;98725.81;107968;1290;22506;-83
2022/04/16 08:13:22;;;;;;;10.20;9.30;;;;;;;3.81;89.08;98727.29;107995;1290;22286;-85
2022/04/16 08:15:50;;;;;;;10.20;9.20;;;;;;;3.76;89.35;98728.52;107977;1290;22235;-84
2022/04/16 08:18:18;;;;;;;9.70;8.80;;;;;;;3.77;89.33;98731.91;107979;1290;22368;-86
2022/04/16 08:20:46;;;;;;;10.20;9.30;;;;;;;3.79;89.21;98732.20;107825;1290;23016;-83
2022/04/16 08:23:14;;;;;;;11.30;10.30;;;;;;;3.79;89.37;98731.99;107835;1290;22449;-85
2022/04/16 08:28:10;;;;;;;10.00;9.10;;;;;;;3.86;89.68;98730.82;107994;1290;22410;-80
2022/04/16 08:30:38;;;;;;;12.40;11.30;;;;;;;3.93;89.37;98733.20;107989;1290;22998;-82
2022/04/16 08:33:07;;;;;;;11.30;10.40;;;;;;;3.97;88.96;98736.38;107990;1290;23087;-82
2022/04/16 08:35:34;;;;;;;11.90;10.80;;;;;;;3.98;89.03;98741.30;107726;1290;22355;-82
2022/04/16 08:38:02;;;;;;;10.50;9.60;;;;;;;3.97;88.59;98744.05;107995;1290;22280;-83
2022/04/16 08:40:30;;;;;;;11.00;10.00;;;;;;;3.96;88.51;98738.91;107969;1290;22766;-81
2022/04/16 08:42:59;;;;;;;11.80;10.70;;;;;;;3.98;88.79;98742.42;107826;1291;22432;-82
2022/04/16 08:45:30;;;;;;;12.30;11.30;;;;;;;3.99;89.07;98744.04;107972;1290;22528;-82
2022/04/16 08:47:58;;;;;;;12.20;11.00;;;;;;;3.94;88.69;98745.21;107988;1290;22946;-84
2022/04/16 08:50:26;;;;;;;10.80;9.90;;;;;;;3.92;88.44;98747.74;107836;1290;22540;-83
2022/04/16 08:52:57;;;;;;;10.90;9.90;;;;;;;3.94;88.37;98754.92;107965;1290;22285;-83
2022/04/16 08:55:26;;;;;;;10.30;9.30;;;;;;;3.93;88.17;98755.02;107963;1290;22995;-83
2022/04/16 08:57:55;;;;;;;10.30;9.50;;;;;;;3.96;88.13;98758.45;108007;1290;22308;-83
2022/04/16 09:00:23;;;;;;;11.50;10.50;;;;;;;3.97;88.53;98757.34;108001;1289;22298;-84
2022/04/16 09:02:56;;;;;;;11.60;10.50;;;;;;;4.01;88.68;98759.66;108014;1290;22460;-84
2022/04/16 09:05:27;;;;;;;10.80;9.90;;;;;;;4.06;88.34;98761.79;107690;1290;22267;-82
2022/04/16 09:07:57;;;;;;;10.70;9.80;;;;;;;4.09;88.44;98759.39;107827;1290;22426;-84
2022/04/16 09:10:27;;;;;;;11.80;10.70;;;;;;;4.16;88.51;98760.86;107800;1290;22472;-80
2022/04/16 09:12:57;;;;;;;13.70;12.50;;;;;;;4.19;87.92;98762.69;108016;1290;22459;-83
2022/04/16 09:15:26;;;;;;;15.40;14.00;;;;;;;4.12;87.56;98766.18;107969;1290;22404;-83
2022/04/16 09:17:58;;;;;;;18.10;16.60;;;;;;;4.00;87.31;98771.31;107997;1289;22351;-82
2022/04/16 09:20:37;;;;;;;14.50;13.20;;;;;;;3.86;86.98;98774.69;107995;1290;22339;-85
2022/04/16 09:23:18;;;;;;;13.30;12.10;;;;;;;3.73;87.10;98769.77;107988;1289;22275;-84
2022/04/16 09:25:47;;;;;;;12.10;10.90;;;;;;;3.64;87.08;98774.33;108002;1290;22374;-84
2022/04/16 09:28:21;;;;;;;11.50;10.50;;;;;;;3.63;87.54;98775.09;107978;1290;22505;-84
2022/04/16 09:30:54;;;;;;;11.90;10.80;;;;;;;3.66;87.20;98778.14;107988;1290;23023;-83
2022/04/16 09:33:22;;;;;;;12.60;11.40;;;;;;;3.66;87.44;98781.39;107987;1290;22389;-83
2022/04/16 09:35:56;;;;;;;10.90;9.90;;;;;;;3.71;87.16;98778.24;107997;1290;22368;-83
2022/04/16 09:38:30;;;;;;;10.50;9.60;;;;;;;3.82;87.34;98781.06;108008;1290;22377;-83
2022/04/16 09:41:04;;;;;;;11.60;10.50;;;;;;;3.95;86.49;98788.95;107980;1290;22272;-87
2022/04/16 09:43:38;;;;;;;12.30;11.20;;;;;;;4.07;86.59;98788.10;107956;1290;22662;-85
2022/04/16 09:46:11;;;;;;;10.40;9.30;;;;;;;4.17;86.73;98791.20;107651;1291;23314;-85
2022/04/16 09:48:39;;;;;;;9.90;9.00;;;;;;;4.27;86.16;98790.27;107807;1290;22359;-86
2022/04/16 09:51:07;;;;;;;9.70;8.80;;;;;;;4.34;84.82;98794.81;107991;1290;22530;-86
2022/04/16 09:53:37;;;;;;;9.80;8.90;;;;;;;4.43;85.56;98793.06;108019;1290;22402;-84
2022/04/16 09:56:10;;;;;;;8.70;7.90;;;;;;;4.50;85.72;98791.98;107822;1290;23394;-88
2022/04/16 09:58:41;;;;;;;8.30;7.60;;;;;;;4.64;85.28;98796.25;108057;1290;22468;-86
2022/04/16 10:01:10;;;;;;;16.20;14.70;;;;;;;4.69;83.74;98802.15;108013;1290;22353;-86
2022/04/16 10:03:40;;;;;;;12.20;11.00;;;;;;;4.73;83.73;98806.83;107696;1291;22515;-88
2022/04/16 10:06:08;;;;;;;11.50;10.40;;;;;;;4.64;82.42;98816.27;107646;1292;23296;-88
2022/04/16 10:08:37;;;;;;;9.80;8.90;;;;;;;4.43;82.53;98823.95;107678;1292;23064;-87
2022/04/16 10:11:05;;;;;;;9.30;8.40;;;;;;;4.40;83.90;98826.63;107723;1293;22281;-84
2022/04/16 10:13:53;;;;;;;9.90;8.80;;;;;;;4.41;83.02;98830.64;107892;1293;22397;-86
2022/04/16 10:16:31;;;;;;;10.70;9.60;;;;;;;4.34;82.63;98836.06;107927;1293;22317;-84
2022/04/16 10:18:59;;;;;;;8.50;7.60;;;;;;;4.30;83.51;98839.22;108008;1292;22285;-83
2022/04/16 10:21:33;;;;;;;9.50;8.40;;;;;;;4.36;83.58;98841.73;108007;1293;22286;-79
2022/04/16 10:24:01;;;;;;;9.50;8.00;;;;;;;4.39;83.16;98841.76;107961;1291;22495;-86
2022/04/16 10:26:39;;;;;;;9.30;7.90;;;;;;;4.41;83.33;98845.85;107672;1292;22513;-86
2022/04/16 10:29:19;;;;;;;9.40;8.50;;;;;;;4.51;83.78;98845.70;107871;1289;22315;-85
2022/04/16 10:31:49;;;;;;;8.30;7.50;;;;;;;4.56;83.03;98845.32;107565;1291;22965;-84
2022/04/16 10:34:28;;;;;;;10.40;7.50;;;;;;;4.69;84.14;98840.23;107824;1291;22344;-84
2022/04/16 10:36:56;;;;;;;9.20;8.30;;;;;;;4.95;84.46;98840.81;107430;1292;22494;-81
2022/04/16 10:39:27;;;;;;;8.00;7.30;;;;;;;5.18;84.10;98843.81;107866;1291;22984;-82
2022/04/16 10:42:00;;;;;;;8.20;7.40;;;;;;;5.31;81.35;98842.59;107861;1290;23131;-84
2022/04/16 10:44:31;;;;;;;8.70;7.90;;;;;;;5.32;80.83;98847.41;107863;1291;22352;-84
2022/04/16 10:46:59;;;;;;;8.10;7.30;;;;;;;5.34;80.84;98851.29;107839;1290;22414;-84
2022/04/16 10:49:28;;;;;;;7.70;6.90;;;;;;;5.32;80.23;98849.40;107830;1291;22287;-83
2022/04/16 10:51:56;;;;;;;8.90;8.00;;;;;;;5.19;78.58;98854.58;107809;1291;22429;-82
2022/04/16 10:54:32;;;;;;;9.70;8.80;;;;;;;5.13;79.00;98848.80;107785;1290;22270;-84
2022/04/16 10:57:01;;;;;;;9.20;8.30;;;;;;;5.12;79.54;98850.06;107820;1290;22273;-82
2022/04/16 10:59:41;;;;;;;10.60;9.50;;;;;;;5.17;78.85;98849.29;107576;1291;23158;-83
2022/04/16 11:02:23;;;;;;;9.30;8.40;;;;;;;5.16;78.79;98849.17;107663;1293;22280;-82
2022/04/16 11:05:10;;;;;;;9.80;8.90;;;;;;;5.22;79.17;98845.16;107814;1290;22244;-83
2022/04/16 11:07:39;;;;;;;8.20;7.30;;;;;;;5.36;79.01;98843.64;107848;1290;22365;-84
2022/04/16 11:10:13;;;;;;;8.90;8.00;;;;;;;5.54;78.15;98842.54;107831;1289;22426;-85
2022/04/16 11:12:42;;;;;;;9.60;8.60;;;;;;;5.80;79.39;98837.73;107824;1290;22317;-84
2022/04/16 11:15:19;;;;;;;7.00;6.40;;;;;;;6.11;79.42;98839.91;107819;1290;22260;-84
2022/04/16 11:17:47;;;;;;;6.90;6.20;;;;;;;6.27;78.26;98840.13;107538;1291;22275;-86
2022/04/16 11:20:15;;;;;;;7.00;6.30;;;;;;;6.34;74.48;98847.66;107800;1291;22351;-86
2022/04/16 11:22:48;;;;;;;8.80;7.10;;;;;;;6.31;73.06;98849.60;107815;1291;22362;-86
2022/04/16 11:25:16;;;;;;;6.20;5.40;;;;;;;6.27;71.42;98846.66;107781;1290;22279;-85
2022/04/16 11:36:11;;;;;;;5.50;4.90;;;;;;;7.38;69.12;98851.92;107565;1291;22447;-84
2022/04/16 11:38:41;;;;;;;9.20;5.30;;;;;;;7.39;69.05;98854.09;107586;1290;23173;-87
2022/04/16 11:41:11;;;;;;;5.10;4.60;;;;;;;7.31;65.86;98853.67;107857;1290;22390;-85
2022/04/16 11:43:47;;;;;;;5.60;5.00;;;;;;;7.27;64.40;98853.34;107805;1290;22263;-84
2022/04/16 11:46:15;;;;;;;5.20;4.70;;;;;;;7.49;66.86;98849.77;107765;1290;22384;-84
2022/04/16 11:48:45;;;;;;;5.70;4.50;;;;;;;7.79;66.45;98847.71;107780;1290;22275;-86
2022/04/16 11:51:18;;;;;;;5.00;4.10;;;;;;;8.13;66.74;98848.31;107785;1290;22447;-85
2022/04/16 11:53:50;;;;;;;4.90;4.10;;;;;;;8.48;65.05;98850.61;107595;1293;22350;-85
2022/04/16 11:56:22;;;;;;;5.00;4.10;;;;;;;8.81;64.70;98848.66;107799;1291;23724;-85
2022/04/16 11:58:51;;;;;;;6.00;4.00;;;;;;;8.88;64.24;98859.70;107810;1290;22288;-84